Time;durP1;ratioP1;P1;durP2;ratioP2;P2;SDS_P1;SDS_P2;PMS_P1;PMS_P2;Temp;Humidity;BMP_temperature;BMP_pressure;BME280_temperature;BME280_humidity;BME280_pressure;Samples;Min_cycle;Max_cycle;Signal;HPM_P1;HPM_P2
2022/01/02 00:01:57;;;;;;;;;33.75;24.25;;;;;13.15;61.97;101502.72;5002750;28;46067;-69
2022/01/02 00:04:25;;;;;;;;;24.75;21.50;;;;;13.17;62.69;101506.34;5006317;28;45322;-73
2022/01/02 00:06:52;;;;;;;;;29.00;23.50;;;;;13.02;62.40;101484.47;5004525;28;45437;-71
2022/01/02 00:09:34;;;;;;;;;30.75;26.25;;;;;13.17;62.79;101500.97;5005836;28;45259;-69
2022/01/02 00:12:04;;;;;;;;;23.00;20.75;;;;;13.14;61.94;101499.97;5006149;28;46064;-67
2022/01/02 00:14:35;;;;;;;;;21.00;20.00;;;;;13.12;61.80;101502.63;5007235;28;45430;-69
2022/01/02 00:17:03;;;;;;;;;26.75;22.00;;;;;13.03;62.59;101489.88;4999626;28;45564;-69
2022/01/02 00:19:30;;;;;;;;;22.75;22.50;;;;;13.06;62.08;101497.97;5000565;28;45501;-67
2022/01/02 00:22:02;;;;;;;;;29.75;25.50;;;;;13.09;61.95;101497.16;4999384;28;45622;-68
2022/01/02 00:24:30;;;;;;;;;25.00;21.00;;;;;13.04;62.01;101505.06;5004683;28;45431;-74
2022/01/02 00:26:57;;;;;;;;;19.50;16.00;;;;;13.03;62.70;101502.34;5005404;28;45160;-71
2022/01/02 00:29:23;;;;;;;;;23.25;19.75;;;;;13.07;62.33;101513.22;5007134;28;45503;-68
2022/01/02 00:31:48;;;;;;;;;21.00;15.50;;;;;13.06;62.79;101511.38;4989523;28;47317;-71
2022/01/02 00:34:15;;;;;;;;;24.25;19.75;;;;;13.07;62.03;101502.47;5005449;28;45121;-73
2022/01/02 00:36:40;;;;;;;;;23.25;19.50;;;;;13.09;61.97;101503.44;5007310;28;45440;-71
2022/01/02 00:39:06;;;;;;;;;22.25;18.25;;;;;13.13;62.12;101495.47;4998728;28;45837;-72
2022/01/02 00:42:04;;;;;;;;;17.50;16.75;;;;;13.14;62.66;101490.16;4999761;28;45649;-67
2022/01/02 00:45:04;;;;;;;;;22.00;19.50;;;;;13.16;62.42;101490.19;4984084;28;45599;-68
2022/01/02 00:47:35;;;;;;;;;24.00;23.00;;;;;13.17;62.59;101490.25;5006426;28;45484;-71
2022/01/02 00:50:08;;;;;;;;;17.75;15.75;;;;;13.08;62.14;101480.16;5004973;28;45421;-70
2022/01/02 00:52:35;;;;;;;;;18.75;18.25;;;;;13.15;62.36;101494.66;5004300;28;46779;-69
2022/01/02 00:55:03;;;;;;;;;15.50;13.00;;;;;13.14;61.77;101499.97;5006304;28;45200;-69
2022/01/02 00:57:39;;;;;;;;;21.75;21.75;;;;;13.12;62.58;101502.63;5006694;28;45556;-74
2022/01/02 01:00:07;;;;;;;;;14.75;13.75;;;;;13.11;61.89;101503.47;5005673;28;45420;-71
2022/01/02 01:02:37;;;;;;;;;19.50;18.00;;;;;12.97;62.10;101453.88;4979200;28;47210;-67
2022/01/02 01:05:05;;;;;;;;;18.00;16.00;;;;;12.98;62.25;101443.19;4997859;28;45530;-68
2022/01/02 01:07:33;;;;;;;;;17.75;15.25;;;;;12.99;61.45;101436.09;5001024;28;45433;-70
2022/01/02 01:10:02;;;;;;;;;19.00;16.25;;;;;13.08;62.62;101442.63;5004190;28;45493;-67
2022/01/02 01:12:28;;;;;;;;;20.50;17.50;;;;;13.11;61.60;101455.19;5005707;28;45391;-70
2022/01/02 01:14:54;;;;;;;;;16.50;15.50;;;;;13.15;62.24;101456.16;5002774;28;45340;-68
2022/01/02 01:17:20;;;;;;;;;16.50;16.50;;;;;13.09;61.29;101428.31;5005259;28;45236;-71
2022/01/02 01:19:45;;;;;;;;;19.00;16.50;;;;;13.08;61.67;101430.94;5006863;28;45196;-68
2022/01/02 01:22:11;;;;;;;;;19.75;19.50;;;;;13.09;62.41;101422.06;5005707;28;46931;-71
2022/01/02 01:24:37;;;;;;;;;21.50;18.75;;;;;12.93;62.20;101396.56;4998796;28;45341;-69
2022/01/02 01:27:04;;;;;;;;;24.50;20.25;;;;;13.11;62.25;101424.78;4999637;28;45350;-67
2022/01/02 01:29:34;;;;;;;;;21.25;20.50;;;;;13.02;61.66;101406.66;5000113;28;45573;-67
2022/01/02 01:32:07;;;;;;;;;22.00;20.00;;;;;13.11;62.55;101431.03;5006284;28;45990;-68
2022/01/02 01:34:34;;;;;;;;;18.75;18.25;;;;;13.12;62.11;101440.91;4991623;28;45933;-73
2022/01/02 01:37:00;;;;;;;;;23.25;18.25;;;;;13.11;61.86;101441.78;4987064;28;45748;-72
2022/01/02 01:39:25;;;;;;;;;20.00;17.00;;;;;13.07;61.69;101426.47;4986661;28;45817;-70
2022/01/02 01:41:52;;;;;;;;;19.50;16.50;;;;;13.14;61.73;101420.38;4988426;28;46225;-71
2022/01/02 01:46:45;;;;;;;;;22.75;17.00;;;;;12.66;61.86;101332.41;4996527;28;45357;-68
2022/01/02 01:49:20;;;;;;;;;14.00;14.00;;;;;13.07;62.05;101411.28;4994466;28;45834;-70
2022/01/02 01:51:46;;;;;;;;;15.75;13.75;;;;;13.05;61.61;101423.75;4989206;28;45694;-68
2022/01/02 01:54:12;;;;;;;;;21.50;18.00;;;;;13.07;61.78;101413.06;4993207;28;46115;-71
2022/01/02 01:56:38;;;;;;;;;23.75;19.50;;;;;13.13;61.89;101407.84;5005930;28;45197;-70
2022/01/02 01:59:04;;;;;;;;;14.75;13.75;;;;;13.13;62.03;101401.56;5006244;28;45903;-71
2022/01/02 02:01:29;;;;;;;;;15.00;15.00;;;;;12.88;62.26;101364.25;5005911;28;45467;-70
2022/01/02 02:03:56;;;;;;;;;22.00;20.50;;;;;12.92;61.92;101373.31;5003101;28;45516;-72
2022/01/02 02:06:21;;;;;;;;;19.50;17.25;;;;;13.08;61.97;101393.41;5005177;28;45280;-70
2022/01/02 02:08:47;;;;;;;;;20.75;18.50;;;;;12.98;62.64;101372.56;5000962;28;45884;-69
2022/01/02 02:11:14;;;;;;;;;18.50;18.50;;;;;13.09;61.89;101411.31;4980832;28;46192;-67
2022/01/02 02:13:40;;;;;;;;;21.25;17.00;;;;;13.12;61.45;101394.41;4998730;28;45813;-70
2022/01/02 02:16:06;;;;;;;;;19.25;18.25;;;;;12.72;62.04;101325.41;5000037;28;45322;-67
2022/01/02 02:18:31;;;;;;;;;18.75;16.00;;;;;13.11;61.74;101384.53;5005570;28;45106;-73
2022/01/02 02:20:57;;;;;;;;;22.50;16.50;;;;;12.86;61.97;101355.28;5001364;28;45411;-69
2022/01/02 02:23:22;;;;;;;;;18.25;16.75;;;;;13.00;61.98;101371.75;5004867;28;45337;-72
2022/01/02 02:25:48;;;;;;;;;18.00;15.75;;;;;12.86;62.68;101332.94;5004861;28;45133;-67
2022/01/02 02:28:15;;;;;;;;;20.25;18.00;;;;;12.78;62.18;101337.19;5005403;28;45455;-71
2022/01/02 02:30:43;;;;;;;;;21.25;18.25;;;;;12.99;61.91;101364.56;5000667;28;45543;-71
2022/01/02 02:33:09;;;;;;;;;19.50;18.25;;;;;12.91;61.87;101344.69;4997068;28;45243;-69
2022/01/02 02:35:37;;;;;;;;;21.00;16.75;;;;;13.01;61.97;101360.13;4998417;28;45146;-68
2022/01/02 02:38:05;;;;;;;;;18.75;14.75;;;;;13.03;61.89;101362.84;5001684;28;45615;-71
2022/01/02 02:40:31;;;;;;;;;20.75;17.50;;;;;12.97;62.07;101350.22;5005531;28;45567;-72
2022/01/02 02:43:03;;;;;;;;;20.25;20.25;;;;;13.05;62.07;101351.31;5005544;28;45380;-72
2022/01/02 02:51:09;;;;;;;;;19.25;15.75;;;;;12.96;62.63;101323.34;5003955;28;45588;-70
2022/01/02 02:53:38;;;;;;;;;18.25;15.00;;;;;12.91;62.00;101315.19;5000293;28;45358;-69
2022/01/02 02:56:14;;;;;;;;;9.25;6.75;;;;;12.93;62.51;101318.78;4998095;28;45380;-69
2022/01/02 02:58:41;;;;;;;;;14.00;13.00;;;;;12.86;62.01;101312.38;5001697;28;45191;-71
2022/01/02 03:01:08;;;;;;;;;19.50;16.25;;;;;12.93;62.46;101316.13;5005104;28;46676;-73
2022/01/02 03:03:34;;;;;;;;;14.75;13.75;;;;;12.94;61.84;101309.91;5007351;28;45160;-70
2022/01/02 03:05:59;;;;;;;;;20.25;16.75;;;;;12.74;61.85;101285.25;4989041;28;45179;-73
2022/01/02 03:08:26;;;;;;;;;19.75;15.25;;;;;12.93;61.73;101312.53;5007396;28;45168;-72
2022/01/02 03:10:51;;;;;;;;;17.25;14.25;;;;;13.01;61.97;101319.91;5007907;28;46059;-71
2022/01/02 03:13:17;;;;;;;;;13.00;12.25;;;;;13.04;61.66;101321.78;5006753;28;45133;-69
2022/01/02 03:15:42;;;;;;;;;17.00;14.75;;;;;12.82;61.57;101280.06;5005170;28;45566;-69
2022/01/02 03:18:07;;;;;;;;;15.25;14.00;;;;;13.00;61.52;101304.69;5001989;28;45739;-70
2022/01/02 03:20:33;;;;;;;;;15.00;12.25;;;;;12.99;61.33;101276.03;5001845;28;45612;-69
2022/01/02 03:22:58;;;;;;;;;14.75;13.50;;;;;12.99;61.29;101273.38;5003480;28;45316;-68
2022/01/02 03:25:23;;;;;;;;;14.00;12.25;;;;;13.03;62.23;101279.69;5007518;28;45224;-69
2022/01/02 03:27:49;;;;;;;;;18.50;18.50;;;;;13.09;62.19;101310.28;5007136;28;45363;-70
2022/01/02 03:30:14;;;;;;;;;21.00;17.50;;;;;12.76;61.29;101275.47;5008111;28;46101;-69
2022/01/02 03:32:40;;;;;;;;;14.00;11.00;;;;;13.02;61.62;101315.47;5007663;28;45169;-67
2022/01/02 03:35:07;;;;;;;;;15.00;14.00;;;;;13.05;61.63;101323.56;5007673;28;46015;-68
2022/01/02 03:37:33;;;;;;;;;16.25;14.25;;;;;12.84;61.56;101286.41;5006835;28;45247;-66
2022/01/02 03:40:00;;;;;;;;;16.00;16.00;;;;;12.82;61.53;101291.72;4998891;28;45383;-69
2022/01/02 03:42:26;;;;;;;;;14.00;13.00;;;;;13.00;61.19;101319.84;5000291;28;45469;-70
2022/01/02 03:44:51;;;;;;;;;14.75;12.50;;;;;13.03;61.68;101312.81;5002388;28;45381;-66
2022/01/02 03:47:17;;;;;;;;;15.75;14.00;;;;;12.85;61.01;101280.16;5008246;28;45484;-67
2022/01/02 03:49:42;;;;;;;;;10.25;10.25;;;;;12.87;61.00;101275.75;5007834;28;45173;-69
2022/01/02 03:52:08;;;;;;;;;12.00;11.00;;;;;12.88;61.50;101267.72;5006185;28;45266;-68
2022/01/02 03:54:34;;;;;;;;;12.75;10.00;;;;;13.08;61.49;101296.81;5006918;28;45161;-68
2022/01/02 03:56:59;;;;;;;;;17.00;13.50;;;;;13.05;61.48;101281.56;4989580;28;45241;-71
2022/01/02 03:59:25;;;;;;;;;11.75;10.00;;;;;12.97;61.47;101261.69;5006877;28;46173;-70
2022/01/02 04:01:50;;;;;;;;;12.75;11.25;;;;;12.88;61.06;101251.63;5001286;28;45373;-66
2022/01/02 04:04:16;;;;;;;;;10.75;10.75;;;;;13.06;60.92;101277.09;5000875;28;45371;-69
2022/01/02 04:06:42;;;;;;;;;11.75;11.75;;;;;13.20;61.30;101282.78;5000744;28;45326;-70
2022/01/02 04:09:07;;;;;;;;;16.50;14.25;;;;;13.05;61.21;101248.44;4987311;28;46144;-73
2022/01/02 04:11:33;;;;;;;;;13.75;12.25;;;;;13.11;60.09;101245.03;5007512;28;45142;-72
2022/01/02 04:13:58;;;;;;;;;10.25;10.25;;;;;13.07;60.48;101247.63;5006929;28;45061;-70
2022/01/02 04:16:23;;;;;;;;;10.25;10.25;;;;;13.28;60.90;101286.56;5007299;28;45232;-71
2022/01/02 04:18:50;;;;;;;;;11.50;9.25;;;;;13.30;60.23;101283.91;5006070;28;45265;-70
2022/01/02 04:21:15;;;;;;;;;13.00;13.00;;;;;13.20;60.22;101262.25;5006292;28;45581;-71
2022/01/02 04:23:41;;;;;;;;;13.00;10.00;;;;;13.20;60.53;101243.47;4985440;28;45388;-66
2022/01/02 04:26:06;;;;;;;;;11.00;10.00;;;;;13.09;60.54;101231.56;4982386;28;45420;-67
2022/01/02 04:28:32;;;;;;;;;14.00;10.50;;;;;13.28;60.63;101249.94;5000586;28;45350;-68
2022/01/02 04:30:57;;;;;;;;;17.75;15.50;;;;;13.19;59.72;101256.84;4985723;28;45287;-67
2022/01/02 04:33:22;;;;;;;;;15.50;12.00;;;;;13.27;59.84;101263.31;5006095;28;45395;-69
2022/01/02 04:35:48;;;;;;;;;11.50;11.50;;;;;13.23;60.18;101259.66;5008016;28;45244;-68
2022/01/02 04:38:14;;;;;;;;;14.50;12.75;;;;;13.22;59.72;101241.72;5006331;28;45479;-70
2022/01/02 04:40:41;;;;;;;;;13.25;13.25;;;;;13.18;59.71;101234.50;5007418;28;45250;-69
2022/01/02 04:43:07;;;;;;;;;12.75;11.75;;;;;13.24;59.96;101242.66;5006631;28;45505;-68
2022/01/02 04:45:32;;;;;;;;;14.25;10.50;;;;;13.16;59.45;101222.78;5006114;28;45302;-68
2022/01/02 04:47:57;;;;;;;;;10.00;10.00;;;;;13.27;60.19;101237.38;4999917;28;45624;-68
2022/01/02 04:50:23;;;;;;;;;10.00;10.00;;;;;13.29;60.05;101232.03;4999754;28;45592;-70
2022/01/02 04:52:49;;;;;;;;;11.50;11.00;;;;;13.08;59.84;101193.13;5001468;28;45406;-69
2022/01/02 04:55:15;;;;;;;;;10.75;10.75;;;;;13.14;59.85;101203.06;5006935;28;45123;-68
2022/01/02 04:57:40;;;;;;;;;14.75;11.25;;;;;13.19;59.20;101220.19;5007086;28;46239;-68
2022/01/02 05:00:07;;;;;;;;;12.00;11.25;;;;;13.15;59.83;101207.59;5007120;28;45310;-67
2022/01/02 05:02:33;;;;;;;;;12.75;12.75;;;;;13.28;59.95;101198.94;5006476;28;45432;-66
2022/01/02 05:04:59;;;;;;;;;12.00;12.00;;;;;13.29;60.33;101199.84;5006660;28;45282;-68
2022/01/02 05:07:24;;;;;;;;;13.50;9.75;;;;;13.23;59.20;101188.97;5006847;28;45323;-69
2022/01/02 05:09:49;;;;;;;;;18.00;13.25;;;;;13.18;59.98;101161.13;4999695;28;45182;-67
2022/01/02 05:12:15;;;;;;;;;15.25;10.75;;;;;13.21;59.52;101196.06;4999729;28;45439;-68
2022/01/02 05:14:40;;;;;;;;;11.75;10.50;;;;;13.24;59.97;101202.41;5000723;28;45139;-68
2022/01/02 05:17:05;;;;;;;;;9.75;9.75;;;;;13.22;59.82;101195.22;5005734;28;45663;-69
2022/01/02 05:19:31;;;;;;;;;13.50;12.25;;;;;12.94;59.71;101169.53;5005259;28;45244;-67
2022/01/02 05:21:57;;;;;;;;;15.00;12.75;;;;;12.79;59.62;101135.22;5005784;28;44984;-69
2022/01/02 05:24:23;;;;;;;;;15.75;12.75;;;;;13.15;59.39;101210.28;5006117;28;45148;-70
2022/01/02 05:26:48;;;;;;;;;11.75;9.75;;;;;12.97;59.84;101180.31;5006023;28;45130;-69
2022/01/02 05:29:15;;;;;;;;;13.00;11.50;;;;;13.01;59.03;101172.38;5006259;28;45271;-69
2022/01/02 05:31:40;;;;;;;;;16.75;12.00;;;;;13.14;59.16;101175.34;5001756;28;45238;-67
2022/01/02 05:34:05;;;;;;;;;15.50;10.50;;;;;13.06;58.95;101156.41;4999242;28;45505;-68
2022/01/02 05:36:31;;;;;;;;;10.75;9.25;;;;;13.26;59.01;101189.03;4999592;28;45331;-69
2022/01/02 05:38:56;;;;;;;;;10.50;8.75;;;;;13.22;58.64;101176.44;5003611;28;45168;-68
2022/01/02 05:41:22;;;;;;;;;10.00;7.50;;;;;13.15;58.64;101174.47;5006398;28;45530;-69
2022/01/02 05:43:47;;;;;;;;;9.75;9.00;;;;;13.23;58.22;101183.59;4988212;28;45244;-67
2022/01/02 05:46:12;;;;;;;;;9.50;9.50;;;;;13.21;58.29;101171.94;5005618;28;45990;-71
2022/01/02 05:48:38;;;;;;;;;11.25;10.75;;;;;13.34;58.84;101192.81;5005771;28;45113;-70
2022/01/02 05:51:03;;;;;;;;;11.25;9.50;;;;;13.37;58.21;101198.28;5005245;28;45218;-72
2022/01/02 05:53:30;;;;;;;;;10.00;9.00;;;;;13.35;59.02;101191.06;4979589;28;45765;-68
2022/01/02 05:55:55;;;;;;;;;8.25;8.25;;;;;13.38;58.60;101217.94;4998614;28;46147;-67
2022/01/02 05:58:21;;;;;;;;;12.00;10.00;;;;;13.38;57.65;101205.47;4999373;28;45370;-68
2022/01/02 06:00:46;;;;;;;;;9.50;8.00;;;;;13.47;58.69;101219.94;5001828;28;45629;-72
2022/01/02 06:03:12;;;;;;;;;12.00;8.25;;;;;13.35;57.91;101199.13;5005363;28;45316;-68
2022/01/02 06:05:37;;;;;;;;;9.00;9.00;;;;;13.02;57.62;101125.91;5005905;28;45812;-71
2022/01/02 06:08:02;;;;;;;;;9.75;8.50;;;;;13.56;57.56;101215.69;5004254;28;48098;-71
2022/01/02 06:10:28;;;;;;;;;9.25;7.75;;;;;13.43;57.50;101182.31;5004864;28;45100;-73
2022/01/02 06:12:53;;;;;;;;;9.00;9.00;;;;;13.31;57.41;101167.66;5005070;28;45620;-71
2022/01/02 06:15:19;;;;;;;;;14.00;10.33;;;;;13.44;57.61;101181.41;5005269;28;45830;-69
2022/01/02 06:17:44;;;;;;;;;8.50;8.50;;;;;13.55;57.60;101200.44;4998248;28;45699;-67
2022/01/02 06:20:09;;;;;;;;;9.33;9.33;;;;;13.63;57.66;101179.16;4998882;28;45672;-68
2022/01/02 06:22:34;;;;;;;;;10.25;10.25;;;;;13.60;57.42;101179.06;5000173;28;45683;-69
2022/01/02 06:25:00;;;;;;;;;10.00;7.00;;;;;13.56;57.71;101167.38;5003806;28;45700;-68
2022/01/02 06:27:25;;;;;;;;;9.50;7.75;;;;;13.59;57.96;101171.88;5004796;28;45498;-67
2022/01/02 06:29:51;;;;;;;;;11.50;8.50;;;;;13.23;57.53;101112.06;5004687;28;45267;-68
2022/01/02 06:32:16;;;;;;;;;9.00;8.25;;;;;13.22;57.62;101136.19;5003836;28;45987;-69
2022/01/02 06:34:44;;;;;;;;;8.75;8.00;;;;;13.45;57.39;101176.97;5005227;28;45546;-70
2022/01/02 06:37:09;;;;;;;;;9.67;7.33;;;;;13.45;57.72;101199.34;4986739;28;45569;-68
2022/01/02 06:39:35;;;;;;;;;13.00;10.75;;;;;13.64;57.78;101224.81;4999371;28;45455;-70
2022/01/02 06:42:00;;;;;;;;;9.50;8.25;;;;;13.62;58.00;101231.00;4998609;28;45180;-68
2022/01/02 06:44:25;;;;;;;;;10.00;8.33;;;;;13.64;57.09;101223.88;4999018;28;45775;-67
2022/01/02 06:46:51;;;;;;;;;9.75;7.00;;;;;13.65;57.54;101228.41;5003682;28;49131;-65
2022/01/02 06:49:16;;;;;;;;;8.67;8.67;;;;;13.62;58.14;101229.22;5004942;28;45090;-69
2022/01/02 06:51:41;;;;;;;;;8.25;8.25;;;;;13.64;57.75;101240.94;5004816;28;45258;-70
2022/01/02 06:54:06;;;;;;;;;8.33;6.33;;;;;13.45;57.41;101193.97;5004268;28;45924;-69
2022/01/02 06:56:32;;;;;;;;;12.00;9.75;;;;;13.54;57.41;101220.09;5004395;28;45070;-70
2022/01/02 06:58:57;;;;;;;;;7.00;6.67;;;;;13.59;57.49;101233.63;4986294;28;45423;-68
2022/01/02 07:01:22;;;;;;;;;8.33;6.67;;;;;13.60;57.37;101232.78;5001334;28;45442;-67
2022/01/02 07:03:48;;;;;;;;;13.33;11.33;;;;;13.07;57.63;101137.66;4998008;28;45556;-68
2022/01/02 07:06:13;;;;;;;;;12.33;7.33;;;;;13.59;57.74;101230.94;4998165;28;45362;-68
2022/01/02 07:08:38;;;;;;;;;9.00;9.00;;;;;13.49;58.16;101212.84;5001831;28;45417;-68
2022/01/02 07:11:05;;;;;;;;;10.75;9.00;;;;;13.48;57.99;101216.38;5005182;28;45535;-67
2022/01/02 07:13:30;;;;;;;;;8.00;8.00;;;;;13.50;58.12;101225.41;5004034;28;45680;-70
2022/01/02 07:15:56;;;;;;;;;7.25;7.25;;;;;13.37;58.28;101209.00;5004974;28;45181;-73
2022/01/02 07:18:21;;;;;;;;;13.75;9.50;;;;;13.32;58.30;101199.94;5004829;28;45318;-68
2022/01/02 07:20:46;;;;;;;;;9.33;8.00;;;;;13.53;58.99;101225.44;4985472;28;45486;-68
2022/01/02 07:23:12;;;;;;;;;7.25;7.25;;;;;13.55;58.51;101235.34;5002986;28;45541;-69
2022/01/02 07:25:37;;;;;;;;;12.75;11.00;;;;;13.45;59.00;101223.50;4996734;28;45608;-68
2022/01/02 07:28:03;;;;;;;;;8.75;7.75;;;;;13.45;59.18;101227.97;4993140;28;45614;-69
2022/01/02 07:30:28;;;;;;;;;8.67;8.00;;;;;13.61;58.73;101247.97;4997283;28;45557;-68
2022/01/02 07:32:53;;;;;;;;;9.00;9.00;;;;;13.42;58.80;101199.28;5004990;28;45472;-68
2022/01/02 07:35:19;;;;;;;;;12.00;9.00;;;;;13.63;58.92;101236.41;5004185;28;45131;-70
2022/01/02 07:37:45;;;;;;;;;12.00;9.00;;;;;13.45;59.04;101203.81;5004554;28;45632;-71
2022/01/02 07:40:10;;;;;;;;;8.33;7.00;;;;;13.69;59.36;101242.78;4985424;28;45242;-71
2022/01/02 07:42:36;;;;;;;;;9.67;8.67;;;;;13.70;59.11;101245.50;5002402;28;45215;-66
2022/01/02 07:45:03;;;;;;;;;10.00;7.50;;;;;13.62;59.46;101234.59;5006784;28;45309;-69
2022/01/02 07:47:28;;;;;;;;;11.75;10.00;;;;;13.51;59.45;101216.44;5000677;28;45307;-70
2022/01/02 07:49:53;;;;;;;;;12.67;9.33;;;;;13.51;59.84;101230.75;5001458;28;45449;-68
2022/01/02 07:52:19;;;;;;;;;6.25;5.75;;;;;13.30;59.59;101192.69;4998976;28;45716;-69
2022/01/02 07:54:44;;;;;;;;;12.00;9.00;;;;;13.47;59.43;101228.91;5006510;28;45268;-69
2022/01/02 07:57:10;;;;;;;;;10.67;8.67;;;;;13.18;59.85;101194.25;5007280;28;46335;-70
2022/01/02 07:59:35;;;;;;;;;8.00;8.00;;;;;13.39;60.58;101246.63;5008089;28;45348;-68
2022/01/02 08:02:00;;;;;;;;;9.25;7.25;;;;;13.38;60.16;101239.41;5007227;28;45397;-70
2022/01/02 08:04:26;;;;;;;;;11.25;8.00;;;;;13.50;60.50;101276.41;5006891;28;45846;-68
2022/01/02 08:06:51;;;;;;;;;11.00;10.00;;;;;13.19;61.20;101236.28;5003285;28;45410;-67
2022/01/02 08:09:16;;;;;;;;;9.00;8.00;;;;;13.35;60.62;101280.53;4985350;28;45284;-68
2022/01/02 08:11:42;;;;;;;;;13.25;10.50;;;;;13.31;61.02;101286.66;5000073;28;45434;-68
2022/01/02 08:14:11;;;;;;;;;1.00;0.00;;;;;13.39;61.91;101311.94;4999809;28;45603;-67
2022/01/02 08:16:37;;;;;;;;;9.00;7.50;;;;;13.38;61.44;101312.81;5003468;28;45252;-70
2022/01/02 08:19:02;;;;;;;;;8.67;7.67;;;;;13.26;62.26;101291.94;5006050;28;45401;-70
2022/01/02 08:21:27;;;;;;;;;9.50;6.50;;;;;13.39;62.24;101316.41;5006354;28;45204;-66
2022/01/02 08:23:53;;;;;;;;;11.75;9.00;;;;;13.38;62.16;101322.63;5003504;28;45237;-67
2022/01/02 08:26:18;;;;;;;;;13.75;10.25;;;;;13.31;62.54;101316.16;5004086;28;45194;-69
2022/01/02 08:28:44;;;;;;;;;10.25;10.25;;;;;13.42;62.57;101316.47;4987848;28;45687;-69
2022/01/02 08:31:09;;;;;;;;;11.00;10.00;;;;;13.30;62.97;101302.72;5003296;28;45551;-70
2022/01/02 08:33:34;;;;;;;;;9.00;9.00;;;;;13.13;62.90;101287.09;4999208;28;45291;-74
2022/01/02 08:36:00;;;;;;;;;14.75;10.00;;;;;13.34;62.99;101310.91;4995275;28;45541;-69
2022/01/02 08:38:27;;;;;;;;;8.00;8.00;;;;;13.24;62.81;101298.13;4995766;28;45482;-71
2022/01/02 08:40:53;;;;;;;;;11.50;11.00;;;;;13.36;62.61;101314.53;4991077;28;46634;-66
2022/01/02 08:43:18;;;;;;;;;11.00;8.00;;;;;13.35;63.53;101319.88;4987367;28;46039;-68
2022/01/02 08:45:44;;;;;;;;;9.50;8.00;;;;;13.36;63.32;101327.94;5000758;28;45931;-68
2022/01/02 08:48:09;;;;;;;;;10.00;9.25;;;;;13.36;63.33;101324.38;5005312;28;45452;-75
2022/01/02 08:50:34;;;;;;;;;13.25;9.75;;;;;13.29;63.90;101317.91;4998632;28;45869;-69
2022/01/02 08:53:00;;;;;;;;;15.00;11.25;;;;;13.22;63.95;101292.72;5005480;28;45145;-72
2022/01/02 08:55:26;;;;;;;;;9.75;9.75;;;;;13.21;63.83;101300.72;4998868;28;45368;-71
2022/01/02 08:57:54;;;;;;;;;13.50;12.25;;;;;13.37;64.37;101340.50;4999282;28;45388;-69
2022/01/02 09:00:19;;;;;;;;;13.25;10.50;;;;;13.38;63.53;101331.59;4999853;28;45790;-68
2022/01/02 09:02:44;;;;;;;;;11.75;8.75;;;;;13.38;64.10;101339.66;5006211;28;45396;-74
2022/01/02 09:05:10;;;;;;;;;10.75;9.50;;;;;13.39;63.91;101336.06;5006867;28;45835;-75
2022/01/02 09:07:35;;;;;;;;;16.50;11.50;;;;;13.40;64.63;101342.38;5005968;28;45142;-73
2022/01/02 09:10:01;;;;;;;;;10.00;8.25;;;;;13.19;64.37;101311.41;5004192;28;45165;-67
2022/01/02 09:12:26;;;;;;;;;8.25;8.25;;;;;13.30;64.24;101329.53;5004567;28;45423;-70
2022/01/02 09:14:52;;;;;;;;;10.75;10.00;;;;;13.41;64.63;101353.16;5006118;28;45264;-67
2022/01/02 09:17:18;;;;;;;;;11.50;9.00;;;;;13.39;64.53;101356.66;5001078;28;45335;-68
2022/01/02 09:19:44;;;;;;;;;11.00;9.50;;;;;13.34;64.82;101343.13;4980931;28;47737;-70
2022/01/02 09:22:09;;;;;;;;;8.75;6.00;;;;;13.36;64.65;101352.09;4998198;28;45304;-68
2022/01/02 09:24:34;;;;;;;;;13.00;9.50;;;;;13.36;64.90;101360.16;5001992;28;45699;-74
2022/01/02 09:27:00;;;;;;;;;11.75;8.25;;;;;13.33;65.00;101364.53;5004452;28;45351;-74
2022/01/02 09:29:25;;;;;;;;;16.00;11.75;;;;;13.21;65.60;101332.91;5003449;28;45626;-75
2022/01/02 09:31:51;;;;;;;;;9.67;8.33;;;;;13.35;65.85;101355.69;4988119;28;45340;-69
2022/01/02 09:34:16;;;;;;;;;8.00;7.00;;;;;13.31;65.50;101360.88;5005032;28;45414;-68
2022/01/02 09:36:42;;;;;;;;;14.75;11.00;;;;;13.42;65.10;101379.09;5004817;28;45042;-71
2022/01/02 09:39:07;;;;;;;;;9.00;9.00;;;;;13.44;65.10;101371.97;5000842;28;45216;-70
2022/01/02 09:41:33;;;;;;;;;9.00;9.00;;;;;13.43;65.74;101364.81;4998280;28;45298;-71
2022/01/02 09:43:59;;;;;;;;;6.25;6.25;;;;;13.46;65.48;101358.59;4999395;28;45242;-72
2022/01/02 09:46:27;;;;;;;;;11.25;7.75;;;;;13.39;65.29;101340.56;5001529;28;45352;-69
2022/01/02 09:48:54;;;;;;;;;9.50;9.50;;;;;13.49;65.55;101358.69;5005492;28;45172;-74
2022/01/02 09:51:24;;;;;;;;;8.33;7.67;;;;;13.48;65.87;101351.53;5005150;28;45153;-69
2022/01/02 09:53:51;;;;;;;;;4.25;3.75;;;;;13.49;65.27;101364.06;5002369;28;45633;-77
2022/01/02 09:56:17;;;;;;;;;10.00;8.50;;;;;13.50;64.99;101365.88;4987728;28;45130;-73
2022/01/02 09:58:44;;;;;;;;;9.00;9.00;;;;;13.54;65.29;101358.81;5000164;28;47242;-73
2022/01/02 10:01:22;;;;;;;;;11.25;8.00;;;;;13.58;65.54;101363.38;5002847;28;45406;-68
2022/01/02 10:03:51;;;;;;;;;10.00;8.00;;;;;13.49;64.90;101337.22;4978944;28;45450;-68
2022/01/02 10:06:18;;;;;;;;;13.75;8.50;;;;;13.59;65.17;101354.44;4997737;28;45570;-66
2022/01/02 10:08:44;;;;;;;;;9.33;7.00;;;;;13.61;64.63;101363.44;5000727;28;45684;-70
2022/01/02 10:11:21;;;;;;;;;11.25;10.50;;;;;13.50;65.30;101346.19;5001720;28;45691;-71
2022/01/02 10:13:51;;;;;;;;;8.25;7.25;;;;;13.70;64.31;101368.13;4989602;28;45066;-76
2022/01/02 10:16:30;;;;;;;;;11.00;7.50;;;;;13.70;64.50;101371.72;5005162;28;45661;-75
2022/01/02 10:18:56;;;;;;;;;7.00;7.00;;;;;13.73;64.93;101373.59;5002719;28;45627;-73
2022/01/02 10:21:36;;;;;;;;;5.33;5.33;;;;;13.59;64.52;101343.72;5003193;28;45231;-68
2022/01/02 10:24:19;;;;;;;;;8.00;7.00;;;;;13.77;64.99;101365.63;5000656;28;45183;-67
2022/01/02 10:27:08;;;;;;;;;7.33;6.00;;;;;13.82;64.63;101371.09;4980371;28;45198;-69
2022/01/02 10:29:54;;;;;;;;;13.00;8.00;;;;;13.88;64.67;101365.88;4997073;28;45913;-71
2022/01/02 10:32:26;;;;;;;;;13.25;9.50;;;;;13.94;64.01;101378.53;4993046;28;45371;-73
2022/01/02 10:34:53;;;;;;;;;7.67;5.00;;;;;14.03;63.91;101365.31;4997661;28;45542;-69
2022/01/02 10:37:26;;;;;;;;;8.67;7.00;;;;;13.84;63.84;101326.38;4997842;28;45640;-68
2022/01/02 10:39:52;;;;;;;;;9.50;7.00;;;;;14.19;63.54;101380.91;4998621;28;46694;-76
2022/01/02 10:42:19;;;;;;;;;6.33;6.33;;;;;14.26;63.10;101372.97;4998683;28;45408;-72
2022/01/02 10:44:45;;;;;;;;;8.00;7.00;;;;;14.11;62.74;101344.88;4998484;28;45149;-77
2022/01/02 10:47:21;;;;;;;;;9.00;7.67;;;;;14.35;63.31;101374.06;4993913;28;45447;-70
2022/01/02 10:49:54;;;;;;;;;6.33;5.00;;;;;14.40;62.67;101368.75;4996863;28;45407;-70
2022/01/02 10:52:37;;;;;;;;;6.33;6.00;;;;;14.25;62.65;101328.16;4993976;28;45386;-72
2022/01/02 10:55:13;;;;;;;;;7.00;7.00;;;;;14.37;62.15;101342.75;5000632;28;45550;-72
2022/01/02 10:57:39;;;;;;;;;8.00;6.33;;;;;14.50;62.11;101365.41;5004412;28;45114;-75
2022/01/02 11:00:06;;;;;;;;;5.00;4.00;;;;;14.40;61.94;101346.38;5002819;28;45645;-71
2022/01/02 11:02:32;;;;;;;;;6.67;5.00;;;;;14.39;62.05;101334.72;4998890;28;45194;-71
2022/01/02 11:04:58;;;;;;;;;4.00;4.00;;;;;14.66;61.63;101372.03;4999711;28;45438;-71
2022/01/02 11:07:25;;;;;;;;;6.33;4.00;;;;;14.69;61.93;101377.47;4993968;28;45393;-72
2022/01/02 11:09:55;;;;;;;;;5.00;4.00;;;;;14.51;61.90;101339.41;4994644;28;46580;-70
2022/01/02 11:12:22;;;;;;;;;6.67;5.33;;;;;14.63;61.61;101353.13;4978795;28;45455;-67
2022/01/02 11:14:49;;;;;;;;;7.33;6.67;;;;;14.62;61.81;101348.66;4968498;28;46096;-69
2022/01/02 11:17:16;;;;;;;;;7.00;4.33;;;;;14.75;61.89;101357.88;4980868;28;48144;-72
2022/01/02 11:19:42;;;;;;;;;4.00;4.00;;;;;14.82;62.12;101365.16;4972798;28;47125;-67
2022/01/02 11:22:26;;;;;;;;;6.00;5.00;;;;;14.86;61.71;101367.00;4980532;28;45852;-73